Washington, District of Columbia
Traffic Map
Current Weather Conditions
Washington, District of Columbia
Overcast Light Rain
Overcast
48°
Feels Like: 40°
Wind Chill: 40° Ceiling: 900
Heat Index: 48° Visibility: 3mi
Dew Point: 47° Wind: 24mph
Humidity: 96% Direction: 50° (NE)
Pressure: 29.54in Gusts: 33mph
Raw Report DataKDCA 230852Z 05021G29KT 3SM -RA BR BKN009 OVC013 09/08 A2954 RMK AO2 PK WND 06029/0850 RAE01B05 PRESFR SLP003 P0001 60002 T00890083 58021 $
Traffic Incident Summary
Active as of:
Severity:
Category:
InformationThere was an issue retrieving the traffic information for this location. Please try a different location or try again shortly.
Advertisements
Track Severe Weather on mobile